createdAt,value
2023-05-19T00:01:20.416Z,99517.66
2023-05-19T00:03:54.928Z,99509.63
2023-05-19T00:06:27.272Z,99508.44
2023-05-19T00:09:01.686Z,99492.84
2023-05-19T00:11:29.884Z,99465.94
2023-05-19T00:13:58.569Z,99480.16
2023-05-19T00:16:27.030Z,99483.38
2023-05-19T00:18:54.421Z,99469.13
2023-05-19T00:21:21.323Z,99475.47
2023-05-19T00:23:48.427Z,99473.97
2023-05-19T00:26:15.377Z,99485.09
2023-05-19T00:28:51.600Z,99510.09
2023-05-19T00:31:18.538Z,99525.81
2023-05-19T00:33:45.931Z,99518.44
2023-05-19T00:36:13.330Z,99528.13
2023-05-19T00:38:40.393Z,99537.78
2023-05-19T00:41:07.549Z,99545.19
2023-05-19T00:43:34.772Z,99538.25
2023-05-19T00:46:02.310Z,99558.53
2023-05-19T00:48:29.374Z,99559.63
2023-05-19T00:51:04.809Z,99569.63
2023-05-19T00:53:34.079Z,99556.13
2023-05-19T00:56:02.080Z,99543.22
2023-05-19T00:58:31.257Z,99532.38
2023-05-19T01:01:07.363Z,99516.84
2023-05-19T01:03:36.334Z,99532.03
2023-05-19T01:06:07.311Z,99513.34
2023-05-19T01:08:36.547Z,99529.78
2023-05-19T01:11:07.284Z,99519.69
2023-05-19T01:13:36.387Z,99532.38
2023-05-19T01:16:42.090Z,99538.44
2023-05-19T01:19:49.681Z,99537.72
2023-05-19T01:22:35.237Z,99543.00
2023-05-19T01:25:17.945Z,99544.09
2023-05-19T01:28:08.031Z,99550.63
2023-05-19T01:30:40.874Z,99547.22
2023-05-19T01:33:10.755Z,99547.28
2023-05-19T01:35:40.731Z,99554.22
2023-05-19T01:38:13.323Z,99546.66
2023-05-19T01:40:42.093Z,99547.28
2023-05-19T01:43:12.640Z,99548.66
2023-05-19T01:45:40.758Z,99527.41
2023-05-19T01:48:10.665Z,99534.41
2023-05-19T01:50:39.634Z,99537.44
2023-05-19T01:53:06.652Z,99522.56
2023-05-19T01:55:39.666Z,99525.63
2023-05-19T01:58:30.405Z,99535.44
2023-05-19T02:01:25.872Z,99532.34
2023-05-19T02:04:02.829Z,99539.06
2023-05-19T02:06:57.726Z,99543.09
2023-05-19T02:09:39.811Z,99555.38
2023-05-19T02:12:18.919Z,99555.06
2023-05-19T02:15:15.698Z,99553.72
2023-05-19T02:17:48.413Z,99563.94
2023-05-19T02:20:16.249Z,99561.28
2023-05-19T02:22:43.594Z,99559.97
2023-05-19T02:25:11.191Z,99562.06
2023-05-19T02:27:38.994Z,99565.84
2023-05-19T02:30:08.425Z,99562.81
2023-05-19T02:32:37.018Z,99566.03
2023-05-19T02:35:04.995Z,99565.22
2023-05-19T02:37:32.681Z,99564.41
2023-05-19T02:39:59.734Z,99581.75
2023-05-19T02:42:26.710Z,99574.13
2023-05-19T02:44:55.256Z,99583.88
2023-05-19T02:47:22.223Z,99575.44
2023-05-19T02:49:49.508Z,99586.56
2023-05-19T02:52:16.426Z,99585.97
2023-05-19T02:54:43.581Z,99580.53
2023-05-19T02:57:11.317Z,99588.25
2023-05-19T02:59:38.368Z,99583.88
2023-05-19T03:02:05.418Z,99582.50
2023-05-19T03:04:32.361Z,99581.16
2023-05-19T03:06:59.223Z,99589.22
2023-05-19T03:09:26.322Z,99585.06
2023-05-19T03:11:53.182Z,99593.88
2023-05-19T03:14:24.289Z,99596.72
2023-05-19T03:16:51.782Z,99593.97
2023-05-19T03:19:18.823Z,99603.56
2023-05-19T03:21:46.499Z,99605.56
2023-05-19T03:24:13.760Z,99608.72
2023-05-19T03:26:41.107Z,99616.94
2023-05-19T03:29:08.403Z,99611.38
2023-05-19T03:31:37.125Z,99617.88
2023-05-19T03:34:05.068Z,99627.72
2023-05-19T03:36:39.453Z,99627.16
2023-05-19T03:39:11.226Z,99623.19
2023-05-19T03:41:38.233Z,99624.25
2023-05-19T03:44:05.471Z,99615.03
2023-05-19T03:46:32.333Z,99619.38
2023-05-19T03:49:25.462Z,99618.22
2023-05-19T03:52:04.576Z,99618.91
2023-05-19T03:54:51.732Z,99627.22
2023-05-19T03:57:20.108Z,99627.22
2023-05-19T03:59:47.787Z,99618.31
2023-05-19T04:02:14.696Z,99618.09
2023-05-19T04:04:41.580Z,99625.19
2023-05-19T04:07:08.586Z,99621.13
2023-05-19T04:09:35.673Z,99632.44
2023-05-19T04:12:05.593Z,99627.03
2023-05-19T04:14:32.459Z,99619.09
2023-05-19T04:17:00.023Z,99623.44
2023-05-19T04:19:27.381Z,99616.94
2023-05-19T04:21:55.545Z,99620.53
2023-05-19T04:24:22.413Z,99626.19
2023-05-19T04:26:49.765Z,99620.09
2023-05-19T04:29:18.358Z,99627.88
2023-05-19T04:31:45.704Z,99616.97
2023-05-19T04:34:12.630Z,99628.09
2023-05-19T04:36:39.659Z,99636.34
2023-05-19T04:39:09.672Z,99632.06
2023-05-19T04:41:40.638Z,99636.22
2023-05-19T04:44:09.510Z,99643.66
2023-05-19T04:46:37.482Z,99637.03
2023-05-19T04:49:05.705Z,99635.97
2023-05-19T04:51:32.742Z,99637.53
2023-05-19T04:54:01.670Z,99634.78
2023-05-19T04:56:29.067Z,99634.97
2023-05-19T04:58:56.881Z,99643.00
2023-05-19T05:01:26.436Z,99644.72
2023-05-19T05:03:55.969Z,99646.44
2023-05-19T05:06:23.151Z,99655.00
2023-05-19T05:08:51.059Z,99658.56
2023-05-19T05:11:18.526Z,99645.47
2023-05-19T05:13:47.012Z,99659.00
2023-05-19T05:16:14.822Z,99670.22
2023-05-19T05:18:44.374Z,99660.56
2023-05-19T05:21:12.411Z,99659.59
2023-05-19T05:23:40.681Z,99673.81
2023-05-19T05:26:15.492Z,99667.34
2023-05-19T05:28:42.617Z,99673.75
2023-05-19T05:31:09.692Z,99671.44
2023-05-19T05:33:37.589Z,99679.63
2023-05-19T05:36:05.233Z,99676.66
2023-05-19T05:38:32.259Z,99682.69
2023-05-19T05:41:00.524Z,99668.16
2023-05-19T05:43:27.925Z,99692.56
2023-05-19T05:45:59.074Z,99683.78
2023-05-19T05:48:26.903Z,99683.78
2023-05-19T05:50:54.771Z,99697.03
2023-05-19T05:53:26.951Z,99709.28
2023-05-19T05:55:55.211Z,99699.56
2023-05-19T05:58:28.735Z,99709.41
2023-05-19T06:00:57.783Z,99718.28
2023-05-19T06:03:26.218Z,99716.25
2023-05-19T06:05:55.294Z,99704.91
2023-05-19T06:08:22.380Z,99713.09
2023-05-19T06:10:49.276Z,99720.31
2023-05-19T06:13:22.295Z,99715.78
2023-05-19T06:15:49.559Z,99722.66
2023-05-19T06:18:21.091Z,99714.78
2023-05-19T06:20:48.648Z,99733.06
2023-05-19T06:23:15.612Z,99710.94
2023-05-19T06:25:42.686Z,99713.91
2023-05-19T06:28:09.729Z,99734.91
2023-05-19T06:30:37.433Z,99724.19
2023-05-19T06:33:23.228Z,99729.50
2023-05-19T06:35:50.170Z,99732.19
2023-05-19T06:38:17.301Z,99731.69
2023-05-19T06:40:44.349Z,99739.22
2023-05-19T06:43:11.331Z,99728.69
2023-05-19T06:45:58.967Z,99735.09
2023-05-19T06:48:26.463Z,99733.69
2023-05-19T06:50:53.449Z,99746.28
2023-05-19T06:53:23.799Z,99737.72
2023-05-19T06:55:59.402Z,99737.56
2023-05-19T06:58:30.872Z,99746.09
2023-05-19T07:00:59.487Z,99751.63
2023-05-19T07:03:31.395Z,99756.81
2023-05-19T07:05:59.512Z,99757.34
2023-05-19T07:08:27.971Z,99760.69
2023-05-19T07:10:57.973Z,99746.59
2023-05-19T07:13:27.236Z,99759.16
2023-05-19T07:15:58.194Z,99766.03
2023-05-19T07:18:31.904Z,99774.91
2023-05-19T07:20:59.146Z,99774.06
2023-05-19T07:23:26.410Z,99778.25
2023-05-19T07:25:56.746Z,99770.88
2023-05-19T07:28:23.844Z,99772.69
2023-05-19T07:30:50.827Z,99777.78
2023-05-19T07:33:17.755Z,99773.81
2023-05-19T07:35:45.640Z,99771.94
2023-05-19T07:38:12.687Z,99772.75
2023-05-19T07:40:39.608Z,99775.94
2023-05-19T07:43:06.553Z,99778.88
2023-05-19T07:45:33.465Z,99779.06
2023-05-19T07:48:00.453Z,99784.50
2023-05-19T07:50:27.447Z,99779.50
2023-05-19T07:52:54.396Z,99778.47
2023-05-19T07:55:23.446Z,99781.75
2023-05-19T07:57:51.063Z,99778.78
2023-05-19T08:00:18.263Z,99774.88
2023-05-19T08:02:45.769Z,99783.34
2023-05-19T08:05:13.056Z,99772.53
2023-05-19T08:07:40.008Z,99771.66
2023-05-19T08:10:07.393Z,99776.50
2023-05-19T08:12:34.339Z,99781.34
2023-05-19T08:15:01.745Z,99786.50
2023-05-19T08:17:28.940Z,99785.47
2023-05-19T08:19:55.852Z,99781.09
2023-05-19T08:22:22.905Z,99778.78
2023-05-19T08:24:51.861Z,99781.63
2023-05-19T08:27:18.914Z,99779.91
2023-05-19T08:29:45.820Z,99781.03
2023-05-19T08:32:13.498Z,99783.25
2023-05-19T08:34:41.475Z,99786.66
2023-05-19T08:37:08.421Z,99785.44
2023-05-19T08:39:35.485Z,99797.56
2023-05-19T08:42:02.659Z,99781.00
2023-05-19T08:44:31.049Z,99790.88
2023-05-19T08:47:00.943Z,99787.53
2023-05-19T08:49:32.639Z,99786.53
2023-05-19T08:52:08.756Z,99787.81
2023-05-19T08:55:01.250Z,99791.72
2023-05-19T08:57:28.765Z,99802.25
2023-05-19T08:59:56.752Z,99802.63
2023-05-19T09:02:24.437Z,99803.47
2023-05-19T09:04:52.958Z,99788.81
2023-05-19T09:07:20.153Z,99806.56
2023-05-19T09:09:47.859Z,99804.16
2023-05-19T09:12:14.893Z,99795.97
2023-05-19T09:14:42.134Z,99795.72
2023-05-19T09:17:09.874Z,99788.72
2023-05-19T09:19:44.914Z,99796.38
2023-05-19T09:22:11.798Z,99792.84
2023-05-19T09:24:40.515Z,99785.22
2023-05-19T09:27:07.903Z,99792.78
2023-05-19T09:29:34.792Z,99790.91
2023-05-19T09:32:04.792Z,99793.25
2023-05-19T09:34:31.739Z,99795.19
2023-05-19T09:36:59.997Z,99793.47
2023-05-19T09:39:28.859Z,99796.28
2023-05-19T09:41:58.961Z,99800.13
2023-05-19T09:44:29.848Z,99801.91
2023-05-19T09:46:58.342Z,99805.91
2023-05-19T09:49:30.433Z,99799.25
2023-05-19T09:52:03.972Z,99801.41
2023-05-19T09:54:32.677Z,99803.53
2023-05-19T09:57:08.879Z,99799.34
2023-05-19T09:59:36.690Z,99794.78
2023-05-19T10:02:03.861Z,99806.44
2023-05-19T10:04:31.977Z,99794.34
2023-05-19T10:06:59.915Z,99792.28
2023-05-19T10:09:29.004Z,99792.28
2023-05-19T10:11:57.549Z,99786.47
2023-05-19T10:14:26.412Z,99785.00
2023-05-19T10:16:55.536Z,99792.06
2023-05-19T10:19:27.073Z,99795.84
2023-05-19T10:21:54.359Z,99790.41
2023-05-19T10:24:21.897Z,99772.44
2023-05-19T10:27:14.032Z,99765.81
2023-05-19T10:29:48.113Z,99766.03
2023-05-19T10:32:22.107Z,99759.88
2023-05-19T10:35:14.535Z,99760.88
2023-05-19T10:38:05.907Z,99755.06
2023-05-19T10:40:58.998Z,99709.41
2023-05-19T10:43:37.451Z,99750.22
2023-05-19T10:46:05.646Z,99735.81
2023-05-19T10:48:38.767Z,99742.84
2023-05-19T10:51:07.275Z,99748.72
2023-05-19T10:53:35.148Z,99738.28
2023-05-19T10:56:04.167Z,99738.50
2023-05-19T10:58:46.257Z,99741.19
2023-05-19T11:01:18.333Z,99740.97
2023-05-19T11:03:50.138Z,99754.06
2023-05-19T11:06:21.500Z,99757.78
2023-05-19T11:08:55.587Z,99760.56
2023-05-19T11:11:23.448Z,99755.72
2023-05-19T11:13:58.057Z,99752.91
2023-05-19T11:16:34.912Z,99756.28
2023-05-19T11:19:02.086Z,99762.47
2023-05-19T11:21:49.195Z,99784.47
2023-05-19T11:24:44.761Z,99838.50
2023-05-19T11:27:33.003Z,99845.06
2023-05-19T11:30:08.282Z,99834.72
2023-05-19T11:32:39.243Z,99852.53
2023-05-19T11:35:08.028Z,99865.84
2023-05-19T11:37:35.933Z,99872.78
2023-05-19T11:40:07.495Z,99899.31
2023-05-19T11:42:36.203Z,99914.16
2023-05-19T11:45:04.632Z,99912.13
2023-05-19T11:47:42.097Z,99886.72
2023-05-19T11:50:20.501Z,99942.50
2023-05-19T11:52:47.720Z,99939.44
2023-05-19T11:55:23.906Z,99927.13
2023-05-19T11:58:05.484Z,99910.72
2023-05-19T12:00:38.292Z,99902.75
2023-05-19T12:03:06.231Z,99893.38
2023-05-19T12:05:37.384Z,99881.38
2023-05-19T12:08:06.528Z,99878.91
2023-05-19T12:10:34.862Z,99870.75
2023-05-19T12:13:02.493Z,99862.53
2023-05-19T12:15:29.501Z,99852.78
2023-05-19T12:17:58.572Z,99849.75
2023-05-19T12:20:26.876Z,99849.94
2023-05-19T12:22:56.475Z,99843.91
2023-05-19T12:25:24.468Z,99838.91
2023-05-19T12:27:52.962Z,99838.56
2023-05-19T12:30:26.720Z,99838.25
2023-05-19T12:32:54.730Z,99843.44
2023-05-19T12:35:23.983Z,99855.84
2023-05-19T12:37:51.552Z,99870.91
2023-05-19T12:40:18.645Z,99869.25
2023-05-19T12:42:46.009Z,99852.16
2023-05-19T12:45:12.934Z,99855.16
2023-05-19T12:47:39.841Z,99851.66
2023-05-19T12:50:08.533Z,99843.94
2023-05-19T12:52:43.568Z,99847.63
2023-05-19T12:55:12.000Z,99840.72
2023-05-19T12:57:43.475Z,99832.97
2023-05-19T13:00:17.783Z,99835.88
2023-05-19T13:03:05.358Z,99832.47
2023-05-19T13:05:34.537Z,99830.03
2023-05-19T13:08:06.793Z,99834.75
2023-05-19T13:10:35.204Z,99832.28
2023-05-19T13:13:03.144Z,99819.22
2023-05-19T13:15:34.373Z,99800.06
2023-05-19T13:18:03.825Z,99830.59
2023-05-19T13:20:31.165Z,99824.78
2023-05-19T13:22:58.143Z,99829.22
2023-05-19T13:25:25.393Z,99825.53
2023-05-19T13:27:52.293Z,99820.59
2023-05-19T13:30:19.385Z,99826.44
2023-05-19T13:32:46.331Z,99828.06
2023-05-19T13:35:14.767Z,99827.13
2023-05-19T13:37:42.703Z,99825.91
2023-05-19T13:40:10.261Z,99829.72
2023-05-19T13:42:38.481Z,99822.31
2023-05-19T13:45:05.892Z,99825.38
2023-05-19T13:47:34.847Z,99817.31
2023-05-19T13:50:03.260Z,99807.75
2023-05-19T13:52:31.060Z,99814.56
2023-05-19T13:54:57.988Z,99819.63
2023-05-19T13:57:26.456Z,99817.56
2023-05-19T14:00:03.430Z,99817.59
2023-05-19T14:02:40.682Z,99815.81
2023-05-19T14:05:08.706Z,99821.59
2023-05-19T14:07:36.021Z,99810.59
2023-05-19T14:10:06.980Z,99815.63
2023-05-19T14:12:45.034Z,99816.91
2023-05-19T14:15:24.072Z,99812.16
2023-05-19T14:17:50.981Z,99811.31
2023-05-19T14:20:17.943Z,99815.47
2023-05-19T14:22:44.845Z,99816.81
2023-05-19T14:25:11.739Z,99821.34
2023-05-19T14:27:40.066Z,99813.28
2023-05-19T14:30:08.286Z,99820.47
2023-05-19T14:32:35.204Z,99818.81
2023-05-19T14:35:02.500Z,99827.13
2023-05-19T14:37:29.345Z,99829.38
2023-05-19T14:39:57.956Z,99842.91
2023-05-19T14:42:27.389Z,99837.94
2023-05-19T14:44:54.194Z,99842.91
2023-05-19T14:47:21.524Z,99844.16
2023-05-19T14:49:48.554Z,99852.41
2023-05-19T14:52:15.433Z,99858.22
2023-05-19T14:54:42.248Z,99854.41
2023-05-19T14:57:09.086Z,99853.56
2023-05-19T14:59:39.208Z,99857.75
2023-05-19T15:02:06.514Z,99852.84
2023-05-19T15:04:33.327Z,99857.44
2023-05-19T15:09:29.931Z,99838.28
2023-05-19T15:12:03.209Z,99842.31
2023-05-19T15:14:35.529Z,99842.91
2023-05-19T15:17:03.070Z,99836.84
2023-05-19T15:19:29.970Z,99836.75
2023-05-19T15:21:56.887Z,99835.59
2023-05-19T15:24:24.886Z,99825.19
2023-05-19T15:26:55.481Z,99834.75
2023-05-19T15:29:22.320Z,99830.22
2023-05-19T15:31:52.726Z,99825.97
2023-05-19T15:34:20.926Z,99840.81
2023-05-19T15:36:47.788Z,99838.91
2023-05-19T15:39:20.056Z,99838.56
2023-05-19T15:41:47.044Z,99825.41
2023-05-19T15:44:18.975Z,99828.94
2023-05-19T15:46:45.854Z,99834.63
2023-05-19T15:49:13.074Z,99834.72
2023-05-19T15:51:42.681Z,99846.31
2023-05-19T15:54:11.423Z,99845.00
2023-05-19T15:56:38.260Z,99848.41
2023-05-19T15:59:05.051Z,99843.84
2023-05-19T16:01:31.933Z,99848.72
2023-05-19T16:03:58.957Z,99866.00
2023-05-19T16:06:31.998Z,99868.00
2023-05-19T16:08:58.820Z,99867.69
2023-05-19T16:11:26.983Z,99871.41
2023-05-19T16:13:53.885Z,99862.69
2023-05-19T16:16:21.426Z,99869.25
2023-05-19T16:18:48.320Z,99869.72
2023-05-19T16:21:17.303Z,99875.94
2023-05-19T16:23:46.046Z,99879.13
2023-05-19T16:26:12.885Z,99893.88
2023-05-19T16:28:39.766Z,99902.75
2023-05-19T16:31:06.746Z,99922.53
2023-05-19T16:33:36.044Z,99947.84
2023-05-19T16:36:03.946Z,99973.78
2023-05-19T16:38:30.857Z,99975.13
2023-05-19T16:40:57.796Z,99968.19
2023-05-19T16:43:24.668Z,99974.88
2023-05-19T16:45:51.809Z,99959.19
2023-05-19T16:48:18.713Z,99924.91
2023-05-19T16:50:48.652Z,99896.97
2023-05-19T16:53:15.572Z,99914.00
2023-05-19T16:55:42.365Z,99913.81
2023-05-19T16:58:11.640Z,99909.72
2023-05-19T17:00:38.573Z,99904.81
2023-05-19T17:03:05.635Z,99901.06
2023-05-19T17:05:32.578Z,99907.81
2023-05-19T17:07:59.506Z,99896.72
2023-05-19T17:10:26.343Z,99890.91
2023-05-19T17:12:53.190Z,99885.53
2023-05-19T17:15:20.037Z,99894.63
2023-05-19T17:17:46.877Z,99893.09
2023-05-19T17:20:13.885Z,99904.13
2023-05-19T17:22:40.686Z,99905.78
2023-05-19T17:25:08.708Z,99907.50
2023-05-19T17:27:35.661Z,99910.97
2023-05-19T17:30:05.166Z,99905.09
2023-05-19T17:32:36.013Z,99910.84
2023-05-19T17:35:06.728Z,99903.72
2023-05-19T17:37:34.045Z,99904.34
2023-05-19T17:40:03.403Z,99909.00
2023-05-19T17:42:31.790Z,99898.28
2023-05-19T17:45:00.602Z,99903.84
2023-05-19T17:47:31.504Z,99904.94
2023-05-19T17:49:58.319Z,99889.75
2023-05-19T17:52:25.883Z,99904.00
2023-05-19T17:54:53.081Z,99902.50
2023-05-19T17:57:25.497Z,99898.59
2023-05-19T17:59:52.646Z,99907.69
2023-05-19T18:02:19.809Z,99915.13
2023-05-19T18:04:46.976Z,99911.72
2023-05-19T18:07:14.238Z,99912.81
2023-05-19T18:09:47.323Z,99918.34
2023-05-19T18:12:14.400Z,99932.63
2023-05-19T18:14:41.488Z,99923.94
2023-05-19T18:17:08.410Z,99910.66
2023-05-19T18:19:35.203Z,99914.41
2023-05-19T18:22:02.052Z,99911.88
2023-05-19T18:24:28.900Z,99922.41
2023-05-19T18:26:55.791Z,99928.44
2023-05-19T18:29:22.650Z,99921.69
